Time;durP1;ratioP1;P1;durP2;ratioP2;P2;SDS_P1;SDS_P2;PMS_P1;PMS_P2;Temp;Humidity;BMP_temperature;BMP_pressure;BME280_temperature;BME280_humidity;BME280_pressure;Samples;Min_cycle;Max_cycle;Signal;HPM_P1;HPM_P2
2023/08/19 00:00:08;;;;;;;17.50;9.70;;;;;;;19.33;100.00;100240.49;109029;1258;71271;-63
2023/08/19 00:03:21;;;;;;;15.60;9.10;;;;;;;19.35;100.00;100240.77;109023;1258;61043;-64
2023/08/19 00:06:38;;;;;;;14.90;9.80;;;;;;;19.36;100.00;100240.48;109114;1260;58869;-63
2023/08/19 00:09:26;;;;;;;15.40;9.80;;;;;;;19.35;100.00;100239.02;109050;1258;71678;-63
2023/08/19 00:12:12;;;;;;;15.40;9.80;;;;;;;19.36;100.00;100235.70;109046;1258;67698;-63
2023/08/19 00:14:58;;;;;;;14.70;9.70;;;;;;;19.36;100.00;100232.44;109047;1258;72600;-64
2023/08/19 00:17:44;;;;;;;18.30;9.20;;;;;;;19.36;100.00;100231.48;109023;1258;59552;-66
2023/08/19 00:20:32;;;;;;;17.40;9.20;;;;;;;19.34;100.00;100221.50;109050;1258;60344;-64
2023/08/19 00:23:24;;;;;;;17.00;8.90;;;;;;;19.37;100.00;100229.24;109024;1258;72864;-62
2023/08/19 00:26:11;;;;;;;15.30;9.40;;;;;;;19.36;100.00;100229.86;109062;1258;67688;-63
2023/08/19 00:28:57;;;;;;;14.20;9.10;;;;;;;19.35;100.00;100228.90;109028;1258;73483;-62
2023/08/19 00:31:44;;;;;;;15.30;9.20;;;;;;;19.34;100.00;100224.50;109031;1258;58296;-63
2023/08/19 00:34:31;;;;;;;14.90;8.80;;;;;;;19.32;100.00;100222.02;109062;1258;60396;-64
2023/08/19 00:37:18;;;;;;;16.80;9.30;;;;;;;19.32;100.00;100222.09;109064;1258;72873;-63
2023/08/19 00:40:06;;;;;;;17.40;8.90;;;;;;;19.32;100.00;100222.97;109010;1258;66961;-62
2023/08/19 00:42:52;;;;;;;14.40;8.90;;;;;;;19.31;100.00;100220.37;109047;1260;73161;-63
2023/08/19 00:45:46;;;;;;;13.90;9.10;;;;;;;19.33;100.00;100221.27;109012;1258;60815;-64
2023/08/19 00:48:33;;;;;;;15.40;9.10;;;;;;;19.32;100.00;100217.57;109047;1258;60390;-62
2023/08/19 00:51:20;;;;;;;15.80;8.80;;;;;;;19.30;100.00;100216.33;109022;1258;72998;-62
2023/08/19 00:54:06;;;;;;;15.90;8.80;;;;;;;19.29;100.00;100215.29;109050;1258;68965;-62
2023/08/19 00:56:54;;;;;;;15.10;9.30;;;;;;;19.25;100.00;100212.59;108957;1258;72476;-63
2023/08/19 00:59:41;;;;;;;14.70;8.30;;;;;;;19.23;100.00;100209.82;109013;1258;60795;-62
2023/08/19 01:02:27;;;;;;;14.10;8.70;;;;;;;19.20;100.00;100205.80;109033;1258;58832;-62
2023/08/19 01:05:14;;;;;;;16.30;10.20;;;;;;;19.19;100.00;100208.36;109053;1258;72876;-63
2023/08/19 01:08:03;;;;;;;18.50;9.40;;;;;;;19.18;100.00;100206.14;109050;1258;67786;-63
2023/08/19 01:11:12;;;;;;;14.80;8.70;;;;;;;19.17;100.00;100201.11;109040;1258;72673;-62
2023/08/19 01:14:13;;;;;;;15.00;8.80;;;;;;;19.13;100.00;100207.26;109017;1258;60550;-63
2023/08/19 01:17:08;;;;;;;14.90;9.50;;;;;;;19.12;100.00;100196.65;109047;1259;59068;-62
2023/08/19 01:19:57;;;;;;;16.20;9.50;;;;;;;19.09;100.00;100193.77;108954;1258;72706;-62
2023/08/19 01:23:01;;;;;;;16.50;10.20;;;;;;;19.09;100.00;100190.75;109044;1258;68250;-63
2023/08/19 01:25:48;;;;;;;17.70;10.20;;;;;;;19.08;100.00;100189.02;108997;1258;71486;-63
2023/08/19 01:28:34;;;;;;;16.20;9.50;;;;;;;19.09;100.00;100185.66;109015;1258;59563;-62
2023/08/19 01:31:22;;;;;;;14.70;9.80;;;;;;;19.09;100.00;100188.85;108921;1258;58990;-62
2023/08/19 01:34:09;;;;;;;17.30;9.90;;;;;;;19.10;100.00;100190.20;109017;1258;73845;-63
2023/08/19 01:37:07;;;;;;;20.20;10.90;;;;;;;19.11;100.00;100191.20;109022;1257;69017;-65
2023/08/19 01:39:56;;;;;;;16.80;10.70;;;;;;;19.13;100.00;100189.39;109145;1257;73638;-62
2023/08/19 01:42:44;;;;;;;16.20;9.90;;;;;;;19.13;100.00;100187.20;109046;1257;60498;-63
2023/08/19 01:45:31;;;;;;;18.40;9.60;;;;;;;19.13;100.00;100191.45;109099;1257;61384;-62
2023/08/19 01:48:17;;;;;;;16.40;10.00;;;;;;;19.14;100.00;100194.58;109127;1259;72953;-62
2023/08/19 01:51:04;;;;;;;17.40;10.60;;;;;;;19.15;100.00;100192.45;109086;1258;67798;-63
2023/08/19 01:53:50;;;;;;;16.40;10.60;;;;;;;19.17;100.00;100194.61;109057;1258;72728;-62
2023/08/19 01:56:36;;;;;;;16.10;9.50;;;;;;;19.17;100.00;100201.98;109025;1258;58252;-63
2023/08/19 01:59:23;;;;;;;16.60;10.40;;;;;;;19.16;100.00;100196.13;108995;1258;60504;-62
2023/08/19 02:02:09;;;;;;;17.30;10.20;;;;;;;19.16;100.00;100190.26;109098;1258;74073;-63
2023/08/19 02:04:56;;;;;;;18.10;9.90;;;;;;;19.11;100.00;100184.84;109032;1258;66934;-62
2023/08/19 02:07:42;;;;;;;18.00;10.30;;;;;;;19.13;100.00;100183.45;109005;1258;73581;-63
2023/08/19 02:10:28;;;;;;;17.50;10.80;;;;;;;19.11;100.00;100188.26;109051;1258;58415;-62
2023/08/19 02:13:15;;;;;;;18.90;10.90;;;;;;;19.11;100.00;100187.66;109093;1258;60234;-62
2023/08/19 02:16:01;;;;;;;19.90;10.50;;;;;;;19.11;100.00;100192.45;109041;1258;72999;-63
2023/08/19 02:18:48;;;;;;;16.70;10.10;;;;;;;19.13;100.00;100197.61;109068;1258;67932;-62
2023/08/19 02:21:34;;;;;;;17.80;10.60;;;;;;;19.14;100.00;100194.24;109024;1258;72502;-63
2023/08/19 02:24:21;;;;;;;16.50;10.30;;;;;;;19.16;100.00;100195.66;109035;1258;59269;-62
2023/08/19 02:27:07;;;;;;;18.30;10.40;;;;;;;19.19;100.00;100198.22;109063;1258;58933;-63
2023/08/19 02:29:53;;;;;;;18.20;11.20;;;;;;;19.21;100.00;100191.60;109020;1258;72762;-62
2023/08/19 02:32:42;;;;;;;18.50;11.00;;;;;;;19.24;100.00;100195.60;109116;1258;68738;-63
2023/08/19 02:35:29;;;;;;;20.00;12.00;;;;;;;19.26;100.00;100188.74;109034;1258;73746;-64
2023/08/19 02:38:15;;;;;;;20.70;12.30;;;;;;;19.29;100.00;100188.11;109060;1258;59902;-63
2023/08/19 02:41:01;;;;;;;16.60;10.70;;;;;;;19.31;100.00;100190.85;109059;1258;61190;-63
2023/08/19 02:43:50;;;;;;;20.90;11.60;;;;;;;19.33;100.00;100190.90;109071;1258;72877;-63
2023/08/19 02:46:36;;;;;;;18.50;11.40;;;;;;;19.34;100.00;100192.20;109045;1258;67881;-62
2023/08/19 02:49:22;;;;;;;19.90;10.90;;;;;;;19.34;100.00;100194.09;109022;1258;71010;-63
2023/08/19 02:52:09;;;;;;;17.50;10.00;;;;;;;19.35;100.00;100194.39;109080;1258;59554;-63
2023/08/19 02:54:55;;;;;;;17.00;10.60;;;;;;;19.35;100.00;100191.55;109046;1260;60119;-62
2023/08/19 02:57:41;;;;;;;16.70;10.10;;;;;;;19.34;100.00;100186.98;109186;1257;74144;-64
2023/08/19 03:00:27;;;;;;;19.20;11.30;;;;;;;19.33;100.00;100185.99;109135;1257;67762;-63
2023/08/19 03:03:14;;;;;;;16.70;10.30;;;;;;;19.32;100.00;100179.09;109071;1260;72923;-62
2023/08/19 03:06:02;;;;;;;17.20;9.80;;;;;;;19.30;100.00;100172.29;109087;1257;59291;-63
2023/08/19 03:08:48;;;;;;;17.40;10.30;;;;;;;19.27;100.00;100173.88;109154;1257;60455;-63
2023/08/19 03:11:36;;;;;;;17.60;10.00;;;;;;;19.27;100.00;100173.92;109013;1260;73923;-62
2023/08/19 03:14:22;;;;;;;16.00;9.80;;;;;;;19.27;100.00;100179.84;109096;1257;67831;-62
2023/08/19 03:17:09;;;;;;;16.70;10.00;;;;;;;19.26;100.00;100182.11;109107;1260;73512;-62
2023/08/19 03:19:56;;;;;;;15.30;9.50;;;;;;;19.26;100.00;100180.83;109139;1258;59454;-62
2023/08/19 03:22:42;;;;;;;15.40;9.50;;;;;;;19.28;100.00;100180.31;109133;1257;59961;-62
2023/08/19 03:25:29;;;;;;;15.80;10.20;;;;;;;19.27;100.00;100176.41;109152;1257;72621;-63
2023/08/19 03:28:16;;;;;;;15.70;9.80;;;;;;;19.28;100.00;100180.15;109088;1260;67710;-62
2023/08/19 03:31:12;;;;;;;14.70;9.30;;;;;;;19.28;100.00;100177.78;109131;1257;73972;-62
2023/08/19 03:33:59;;;;;;;15.50;9.10;;;;;;;19.28;100.00;100168.95;109060;1257;58732;-61
2023/08/19 03:36:47;;;;;;;15.60;8.90;;;;;;;19.29;100.00;100163.83;109118;1257;61103;-64
2023/08/19 03:39:33;;;;;;;14.70;9.50;;;;;;;19.31;100.00;100160.89;109057;1258;73094;-64
2023/08/19 03:42:19;;;;;;;14.30;8.80;;;;;;;19.32;100.00;100156.60;108966;1257;66615;-66
2023/08/19 03:45:06;;;;;;;15.00;9.20;;;;;;;19.32;100.00;100158.17;109058;1257;71305;-65
2023/08/19 03:47:54;;;;;;;13.80;8.90;;;;;;;19.33;100.00;100160.77;109073;1257;58060;-64
2023/08/19 03:50:41;;;;;;;14.00;8.90;;;;;;;19.34;100.00;100162.86;109123;1257;61066;-63
2023/08/19 03:53:27;;;;;;;14.20;8.20;;;;;;;19.36;100.00;100166.60;109118;1257;72905;-65
2023/08/19 03:56:14;;;;;;;13.30;8.20;;;;;;;19.37;100.00;100164.70;109022;1258;68608;-65
2023/08/19 03:59:00;;;;;;;13.30;8.40;;;;;;;19.38;100.00;100165.27;109046;1258;73620;-64
2023/08/19 04:01:46;;;;;;;12.60;7.90;;;;;;;19.39;100.00;100165.84;109013;1258;59400;-64
2023/08/19 04:04:36;;;;;;;12.00;7.30;;;;;;;19.40;100.00;100161.09;109024;1258;59969;-64
2023/08/19 04:07:22;;;;;;;13.60;8.30;;;;;;;19.42;100.00;100163.98;109001;1258;74025;-65
2023/08/19 04:10:09;;;;;;;12.80;7.60;;;;;;;19.43;100.00;100164.29;109069;1258;67908;-64
2023/08/19 04:12:55;;;;;;;13.90;7.60;;;;;;;19.41;100.00;100161.00;108966;1258;73674;-64
2023/08/19 04:15:41;;;;;;;12.20;7.40;;;;;;;19.42;100.00;100160.39;108965;1258;58336;-62
2023/08/19 04:18:28;;;;;;;12.70;8.10;;;;;;;19.43;100.00;100162.76;108960;1259;60573;-64
2023/08/19 04:21:14;;;;;;;13.00;8.20;;;;;;;19.46;100.00;100163.86;109017;1259;72741;-63
2023/08/19 04:24:00;;;;;;;13.50;8.80;;;;;;;19.49;100.00;100164.46;109039;1258;67989;-65
2023/08/19 04:26:46;;;;;;;13.10;8.10;;;;;;;19.52;100.00;100162.96;108988;1258;72829;-64
2023/08/19 04:29:33;;;;;;;13.60;8.20;;;;;;;19.56;100.00;100159.26;109012;1258;59321;-63
2023/08/19 04:32:20;;;;;;;13.50;8.10;;;;;;;19.62;100.00;100151.42;109025;1258;59805;-63
2023/08/19 04:35:09;;;;;;;13.10;8.40;;;;;;;19.64;100.00;100156.59;109037;1258;74090;-65
2023/08/19 04:37:56;;;;;;;12.70;8.40;;;;;;;19.63;100.00;100154.88;109026;1258;68905;-65
2023/08/19 04:40:42;;;;;;;13.10;8.30;;;;;;;19.65;100.00;100157.23;109027;1258;72654;-63
2023/08/19 04:43:29;;;;;;;12.80;8.20;;;;;;;19.70;100.00;100158.61;109049;1258;58027;-64
2023/08/19 04:46:15;;;;;;;14.10;8.20;;;;;;;19.73;100.00;100160.94;108982;1260;60541;-67
2023/08/19 04:49:02;;;;;;;13.80;8.20;;;;;;;19.77;100.00;100163.45;109008;1260;73924;-65
2023/08/19 04:51:49;;;;;;;13.00;8.40;;;;;;;19.80;100.00;100167.73;109035;1261;67628;-64
2023/08/19 04:54:35;;;;;;;12.30;7.60;;;;;;;19.84;100.00;100170.15;108972;1260;72611;-65
2023/08/19 04:57:22;;;;;;;12.90;7.80;;;;;;;19.89;100.00;100173.36;108985;1260;59580;-65
2023/08/19 05:00:12;;;;;;;12.80;7.90;;;;;;;19.95;100.00;100185.41;108891;1261;60362;-64
2023/08/19 05:02:58;;;;;;;12.40;7.70;;;;;;;20.01;100.00;100182.20;108999;1260;71749;-63
2023/08/19 05:05:45;;;;;;;12.20;7.40;;;;;;;20.09;100.00;100183.47;108931;1260;67870;-63
2023/08/19 05:08:31;;;;;;;13.60;7.90;;;;;;;20.15;100.00;100187.61;108872;1260;72609;-64
2023/08/19 05:11:18;;;;;;;12.40;7.40;;;;;;;20.20;100.00;100188.70;108948;1261;60564;-63
2023/08/19 05:14:05;;;;;;;12.90;8.30;;;;;;;20.24;100.00;100195.02;108984;1259;61274;-65
2023/08/19 05:16:51;;;;;;;12.70;8.00;;;;;;;20.29;100.00;100197.05;108956;1260;73092;-64
2023/08/19 05:19:39;;;;;;;12.20;7.90;;;;;;;20.34;100.00;100194.11;109022;1258;67961;-64
2023/08/19 05:22:25;;;;;;;12.10;7.90;;;;;;;20.39;100.00;100196.96;108962;1259;73929;-65
2023/08/19 05:25:11;;;;;;;12.70;7.80;;;;;;;20.42;100.00;100192.48;108974;1258;58408;-66
2023/08/19 05:27:58;;;;;;;13.20;7.90;;;;;;;20.50;100.00;100186.33;108989;1259;61415;-64
2023/08/19 05:30:44;;;;;;;12.70;8.20;;;;;;;20.58;100.00;100185.89;109009;1258;73948;-65
2023/08/19 05:33:30;;;;;;;12.40;8.00;;;;;;;20.65;100.00;100187.39;109005;1259;67875;-67
2023/08/19 05:36:16;;;;;;;12.20;7.80;;;;;;;20.69;100.00;100185.11;108953;1259;73617;-64
2023/08/19 05:39:03;;;;;;;14.30;8.30;;;;;;;20.73;100.00;100183.59;108986;1258;58162;-66
2023/08/19 05:41:49;;;;;;;13.20;8.50;;;;;;;20.74;100.00;100186.14;108990;1259;61521;-68
2023/08/19 05:44:36;;;;;;;14.30;8.80;;;;;;;20.74;100.00;100193.68;108984;1259;74299;-66
2023/08/19 05:47:22;;;;;;;13.40;8.40;;;;;;;20.77;100.00;100193.05;108971;1258;68790;-65
2023/08/19 05:50:09;;;;;;;14.20;8.10;;;;;;;20.81;100.00;100197.48;108944;1259;74001;-65
2023/08/19 05:52:55;;;;;;;13.10;8.50;;;;;;;20.85;100.00;100204.95;108949;1260;60496;-64
2023/08/19 05:55:41;;;;;;;14.30;9.40;;;;;;;20.85;100.00;100202.63;109011;1257;60311;-67
2023/08/19 05:58:28;;;;;;;13.80;8.90;;;;;;;20.85;100.00;100203.97;109097;1257;74094;-67
2023/08/19 06:01:14;;;;;;;13.50;8.40;;;;;;;20.85;100.00;100205.05;109002;1262;67835;-64
2023/08/19 06:04:01;;;;;;;13.30;9.30;;;;;;;20.90;100.00;100209.82;108999;1257;73317;-65
2023/08/19 06:06:48;;;;;;;14.10;9.30;;;;;;;20.98;100.00;100209.79;109019;1258;58265;-63
2023/08/19 06:09:34;;;;;;;13.90;9.10;;;;;;;21.11;100.00;100218.09;109022;1258;59208;-63
2023/08/19 06:12:20;;;;;;;15.00;8.30;;;;;;;21.26;100.00;100218.98;108987;1258;72863;-62
2023/08/19 06:15:07;;;;;;;13.30;9.10;;;;;;;21.40;100.00;100222.15;109042;1258;67432;-64
2023/08/19 06:17:53;;;;;;;13.70;9.40;;;;;;;21.57;100.00;100226.20;108984;1257;73623;-64
2023/08/19 06:20:39;;;;;;;14.80;9.70;;;;;;;21.65;100.00;100228.48;109023;1257;57430;-64
2023/08/19 06:23:25;;;;;;;16.70;9.70;;;;;;;21.64;100.00;100235.75;109067;1257;60197;-64
2023/08/19 06:26:12;;;;;;;16.70;10.60;;;;;;;21.65;100.00;100247.34;109085;1257;73031;-63
2023/08/19 06:28:58;;;;;;;16.80;11.20;;;;;;;21.68;100.00;100244.91;109068;1261;67072;-62
2023/08/19 06:31:45;;;;;;;16.20;10.70;;;;;;;21.79;100.00;100246.19;109063;1258;73579;-64
2023/08/19 06:34:31;;;;;;;16.70;10.50;;;;;;;21.94;100.00;100252.09;109005;1257;60466;-64
2023/08/19 06:37:29;;;;;;;17.40;11.10;;;;;;;22.04;100.00;100257.27;108979;1257;60085;-63
2023/08/19 06:40:19;;;;;;;19.30;12.20;;;;;;;22.14;100.00;100258.43;108843;1257;194784;-64
2023/08/19 06:43:06;;;;;;;21.20;12.70;;;;;;;22.30;100.00;100260.20;109062;1257;68728;-64
2023/08/19 06:45:56;;;;;;;21.80;13.10;;;;;;;22.47;100.00;100255.14;109096;1257;73761;-73
2023/08/19 06:48:44;;;;;;;19.80;12.60;;;;;;;22.58;100.00;100263.39;108953;1259;58448;-73
2023/08/19 06:51:30;;;;;;;19.90;11.90;;;;;;;22.66;100.00;100265.47;109011;1261;59589;-73
2023/08/19 06:54:17;;;;;;;20.20;12.40;;;;;;;22.71;99.47;100260.98;109008;1259;71696;-69
2023/08/19 06:57:14;;;;;;;19.30;11.20;;;;;;;22.74;99.41;100262.76;109005;1259;66570;-71
2023/08/19 07:00:10;;;;;;;20.50;12.60;;;;;;;22.85;99.04;100269.90;108983;1260;72637;-70
2023/08/19 07:02:57;;;;;;;20.50;12.20;;;;;;;22.97;98.71;100269.43;109107;1259;59670;-70
2023/08/19 07:05:45;;;;;;;20.40;12.50;;;;;;;23.12;97.75;100263.94;109101;1261;60339;-71
2023/08/19 07:08:35;;;;;;;22.00;13.50;;;;;;;23.22;97.37;100267.39;109107;1259;71609;-70
2023/08/19 07:11:22;;;;;;;20.10;12.30;;;;;;;23.36;96.40;100264.28;109260;1259;67621;-70
2023/08/19 07:14:09;;;;;;;21.80;12.90;;;;;;;23.44;95.70;100264.76;109140;1260;72632;-73
2023/08/19 07:17:00;;;;;;;23.20;13.50;;;;;;;23.54;94.89;100264.72;108877;1259;59622;-62
2023/08/19 07:19:51;;;;;;;25.00;15.20;;;;;;;23.58;94.22;100264.33;108953;1258;60033;-61
2023/08/19 07:22:38;;;;;;;24.60;15.50;;;;;;;23.75;93.95;100264.85;109007;1259;73113;-63
2023/08/19 07:25:25;;;;;;;27.40;16.90;;;;;;;23.84;92.93;100265.91;109007;1259;67890;-63
2023/08/19 07:28:13;;;;;;;26.60;15.90;;;;;;;24.00;92.32;100276.16;108971;1260;73831;-62
2023/08/19 07:31:02;;;;;;;25.90;16.70;;;;;;;24.13;91.34;100278.77;108895;1260;57965;-62
2023/08/19 07:33:49;;;;;;;32.50;20.10;;;;;;;24.27;90.62;100278.90;108987;1260;61379;-61
2023/08/19 07:36:36;;;;;;;31.30;18.70;;;;;;;24.42;89.35;100277.67;108998;1259;73088;-62
2023/08/19 07:39:23;;;;;;;28.60;18.10;;;;;;;24.52;88.52;100277.83;108967;1259;67704;-62
2023/08/19 07:42:09;;;;;;;45.50;30.60;;;;;;;24.66;88.17;100275.23;108997;1259;73974;-63
2023/08/19 07:44:55;;;;;;;54.60;31.30;;;;;;;24.75;87.00;100272.20;108943;1260;59605;-63
2023/08/19 07:47:42;;;;;;;35.80;20.30;;;;;;;24.79;86.43;100274.93;109030;1258;60193;-63
2023/08/19 07:50:29;;;;;;;34.50;22.40;;;;;;;24.83;85.40;100274.30;109026;1259;71816;-62
2023/08/19 07:53:16;;;;;;;31.70;20.50;;;;;;;24.89;85.10;100272.68;108906;1260;65669;-63
2023/08/19 07:56:02;;;;;;;31.10;19.30;;;;;;;25.01;84.99;100271.80;108995;1260;72607;-62
2023/08/19 07:58:48;;;;;;;25.40;16.70;;;;;;;25.28;84.18;100268.81;108963;1258;59603;-63
2023/08/19 08:01:34;;;;;;;23.90;15.90;;;;;;;25.71;83.12;100275.04;108791;1259;61257;-64
2023/08/19 08:04:24;;;;;;;24.00;15.90;;;;;;;26.51;80.12;100267.83;108981;1259;71231;-63
2023/08/19 08:07:11;;;;;;;24.40;16.30;;;;;;;27.72;76.73;100268.05;109013;1258;69028;-62
2023/08/19 08:09:57;;;;;;;20.80;15.00;;;;;;;29.28;71.47;100263.11;109013;1259;72401;-62
2023/08/19 08:12:45;;;;;;;25.70;15.40;;;;;;;30.53;65.16;100266.28;108955;1259;58249;-64
2023/08/19 08:15:32;;;;;;;23.40;16.80;;;;;;;31.59;60.74;100259.97;108970;1259;59236;-63
2023/08/19 08:18:19;;;;;;;23.50;17.00;;;;;;;32.51;56.60;100257.49;108908;1259;73053;-62
2023/08/19 08:21:05;;;;;;;21.80;15.10;;;;;;;33.32;54.12;100255.64;109009;1260;67776;-62
2023/08/19 08:23:54;;;;;;;22.30;14.90;;;;;;;33.94;51.61;100253.80;109074;1259;71241;-62
2023/08/19 08:26:40;;;;;;;20.10;15.30;;;;;;;34.38;49.46;100257.38;108994;1257;57628;-61
2023/08/19 08:29:27;;;;;;;22.80;14.90;;;;;;;34.93;47.60;100253.73;109046;1257;60343;-62
2023/08/19 08:32:13;;;;;;;22.00;15.70;;;;;;;35.51;45.23;100244.02;109136;1257;73999;-63
2023/08/19 08:34:59;;;;;;;20.60;15.00;;;;;;;36.14;43.68;100243.48;109068;1257;68225;-65
2023/08/19 08:37:47;;;;;;;20.90;14.10;;;;;;;36.82;42.54;100246.45;108985;1257;72917;-63
2023/08/19 08:40:34;;;;;;;19.90;14.30;;;;;;;37.40;40.36;100243.56;109033;1258;58004;-63
2023/08/19 08:43:21;;;;;;;19.80;13.40;;;;;;;37.88;39.38;100242.17;108960;1257;58988;-62
2023/08/19 08:46:08;;;;;;;20.40;14.30;;;;;;;38.13;38.34;100235.94;109058;1257;73854;-63
2023/08/19 08:48:55;;;;;;;19.80;14.30;;;;;;;38.21;38.23;100236.16;109075;1257;67994;-64
2023/08/19 08:51:44;;;;;;;17.90;13.80;;;;;;;38.53;37.58;100234.35;108940;1260;72664;-64
2023/08/19 08:54:33;;;;;;;17.30;12.60;;;;;;;38.78;37.25;100237.67;109040;1257;57738;-65
2023/08/19 08:57:20;;;;;;;17.70;13.20;;;;;;;39.14;36.31;100236.76;109097;1257;61333;-65
2023/08/19 09:00:11;;;;;;;18.10;13.00;;;;;;;39.18;35.55;100233.98;109050;1257;72782;-64
2023/08/19 09:03:00;;;;;;;20.60;12.80;;;;;;;39.32;35.38;100228.88;109071;1257;66546;-63
2023/08/19 09:05:50;;;;;;;16.70;11.10;;;;;;;39.68;35.25;100226.83;109019;1258;71816;-64
2023/08/19 09:08:45;;;;;;;17.70;12.10;;;;;;;39.83;34.12;100224.03;108986;1257;57839;-64
2023/08/19 09:11:37;;;;;;;19.30;12.10;;;;;;;39.88;34.04;100224.88;109087;1257;58922;-63
2023/08/19 09:14:41;;;;;;;15.80;11.30;;;;;;;40.01;33.90;100221.81;109056;1257;71688;-64
2023/08/19 09:17:27;;;;;;;14.80;10.80;;;;;;;40.02;33.57;100225.86;109016;1257;66014;-66
2023/08/19 09:20:17;;;;;;;14.60;10.10;;;;;;;40.10;33.17;100222.90;108963;1257;71198;-64
2023/08/19 09:23:09;;;;;;;14.40;10.40;;;;;;;39.95;32.95;100220.21;109066;1257;57543;-63
2023/08/19 09:25:58;;;;;;;14.30;9.70;;;;;;;40.13;32.96;100224.89;109119;1257;60371;-62
2023/08/19 09:28:44;;;;;;;15.40;9.90;;;;;;;40.16;32.78;100225.44;109094;1257;73124;-66
2023/08/19 09:31:30;;;;;;;14.00;9.80;;;;;;;40.23;32.82;100224.54;109033;1257;66653;-65
2023/08/19 09:34:18;;;;;;;15.80;9.50;;;;;;;40.39;32.62;100221.73;109122;1257;72993;-65
2023/08/19 09:37:08;;;;;;;15.50;10.40;;;;;;;40.24;32.24;100217.23;109053;1257;57714;-63
2023/08/19 09:39:54;;;;;;;15.40;9.10;;;;;;;39.71;33.02;100217.13;109000;1257;58702;-64
2023/08/19 09:42:48;;;;;;;14.40;9.60;;;;;;;39.70;33.36;100221.30;109114;1257;72806;-63
2023/08/19 09:45:35;;;;;;;14.90;9.50;;;;;;;39.99;32.97;100217.77;109129;1257;67707;-63
2023/08/19 09:48:22;;;;;;;14.80;8.90;;;;;;;40.11;32.83;100220.65;108993;1257;71351;-66
2023/08/19 09:51:21;;;;;;;13.60;8.80;;;;;;;40.25;32.41;100218.09;109065;1257;57282;-65
2023/08/19 09:54:10;;;;;;;14.90;8.70;;;;;;;40.33;32.49;100210.68;108980;1259;60125;-64
2023/08/19 09:56:58;;;;;;;12.60;8.30;;;;;;;40.18;32.25;100220.37;108991;1258;74526;-67
2023/08/19 09:59:44;;;;;;;11.90;7.30;;;;;;;40.20;32.69;100215.99;108997;1258;68960;-62
2023/08/19 10:02:32;;;;;;;10.10;7.10;;;;;;;40.25;32.32;100209.74;108986;1259;73500;-61
2023/08/19 10:05:19;;;;;;;12.40;7.20;;;;;;;40.38;32.35;100210.77;108907;1258;57349;-64
2023/08/19 10:08:13;;;;;;;15.00;7.30;;;;;;;40.66;32.33;100211.10;108939;1260;60006;-65
2023/08/19 10:11:00;;;;;;;13.60;7.40;;;;;;;40.94;31.09;100209.25;108946;1259;73038;-63
2023/08/19 10:13:46;;;;;;;11.60;7.20;;;;;;;40.62;31.29;100205.52;108991;1258;68771;-66
2023/08/19 10:16:40;;;;;;;12.20;6.90;;;;;;;40.69;31.17;100209.77;109040;1258;73455;-63
2023/08/19 10:19:28;;;;;;;12.80;6.90;;;;;;;40.79;30.82;100207.41;108978;1258;57385;-61
2023/08/19 10:22:16;;;;;;;12.50;7.00;;;;;;;40.87;30.95;100208.09;109102;1259;58909;-64
2023/08/19 10:25:04;;;;;;;13.00;7.40;;;;;;;40.75;30.53;100208.23;109096;1259;72914;-64
2023/08/19 10:27:51;;;;;;;13.80;7.20;;;;;;;40.53;31.02;100204.23;108995;1258;66717;-63
2023/08/19 10:30:38;;;;;;;14.80;6.70;;;;;;;40.31;30.97;100200.91;109037;1258;72238;-64
2023/08/19 10:33:32;;;;;;;11.20;7.00;;;;;;;40.24;31.56;100197.66;108996;1258;57419;-63
2023/08/19 10:36:19;;;;;;;12.10;6.80;;;;;;;40.22;31.60;100200.61;109021;1258;60417;-63
2023/08/19 10:39:15;;;;;;;10.70;6.40;;;;;;;40.13;31.44;100203.84;108901;1260;74070;-62
2023/08/19 10:42:03;;;;;;;13.90;9.80;;;;;;;39.84;31.24;100201.63;109022;1258;67891;-64
2023/08/19 10:44:52;;;;;;;12.60;7.30;;;;;;;39.89;32.02;100200.14;108995;1258;72545;-66
2023/08/19 10:47:41;;;;;;;10.90;6.50;;;;;;;39.83;31.41;100199.71;108924;1257;57312;-61
2023/08/19 10:50:34;;;;;;;9.70;5.60;;;;;;;40.01;31.26;100200.82;108939;1258;60167;-63
2023/08/19 10:53:20;;;;;;;12.10;6.30;;;;;;;39.90;30.13;100199.05;108989;1258;72477;-63
2023/08/19 10:56:13;;;;;;;10.50;7.20;;;;;;;40.08;30.82;100199.99;108979;1258;67773;-61
2023/08/19 10:58:59;;;;;;;9.70;6.20;;;;;;;40.24;30.72;100197.12;109001;1258;73997;-61
2023/08/19 11:01:46;;;;;;;10.70;6.70;;;;;;;40.31;30.17;100193.36;109051;1258;57624;-61
2023/08/19 11:04:34;;;;;;;10.30;6.30;;;;;;;40.26;30.26;100195.40;109008;1258;61414;-62
2023/08/19 11:07:21;;;;;;;10.20;7.20;;;;;;;40.30;30.68;100192.27;109034;1258;74310;-63
2023/08/19 11:10:07;;;;;;;12.10;6.80;;;;;;;40.42;30.73;100191.48;109014;1258;66720;-67
2023/08/19 11:12:55;;;;;;;10.60;6.60;;;;;;;40.47;30.46;100191.48;108947;1258;71173;-65
2023/08/19 11:15:42;;;;;;;11.50;6.40;;;;;;;40.29;30.58;100190.80;108976;1258;58800;-64
2023/08/19 11:18:28;;;;;;;10.30;6.80;;;;;;;40.32;30.87;100188.33;109104;1257;60083;-63
2023/08/19 11:21:18;;;;;;;10.50;6.90;;;;;;;40.44;30.80;100191.95;109028;1258;74503;-61
2023/08/19 11:24:05;;;;;;;10.00;5.90;;;;;;;40.53;30.69;100192.92;108916;1258;66985;-63
2023/08/19 11:26:52;;;;;;;13.80;7.60;;;;;;;40.48;30.95;100190.28;108961;1258;72608;-63
2023/08/19 11:29:39;;;;;;;11.60;6.80;;;;;;;40.16;30.87;100186.26;108980;1258;57247;-64
2023/08/19 11:32:29;;;;;;;12.80;7.70;;;;;;;39.72;31.57;100187.25;108978;1258;59060;-65
2023/08/19 11:35:15;;;;;;;10.90;6.90;;;;;;;39.30;31.64;100188.78;109002;1258;73775;-63
2023/08/19 11:38:12;;;;;;;12.90;8.30;;;;;;;38.90;32.45;100188.81;109005;1258;67166;-61
2023/08/19 11:41:00;;;;;;;10.10;7.00;;;;;;;38.55;32.90;100183.69;108927;1258;72462;-62
2023/08/19 11:43:49;;;;;;;10.60;6.60;;;;;;;38.26;32.57;100182.03;108944;1259;57666;-63
2023/08/19 11:46:36;;;;;;;9.20;5.60;;;;;;;37.95;32.43;100176.89;108970;1258;59030;-64
2023/08/19 11:49:24;;;;;;;10.10;5.80;;;;;;;37.25;32.48;100176.21;109010;1258;72803;-62
2023/08/19 11:52:09;;;;;;;9.60;5.50;;;;;;;36.83;33.46;100176.59;108881;1258;67931;-62
2023/08/19 11:55:06;;;;;;;10.00;6.20;;;;;;;36.32;34.17;100173.13;108953;1258;71167;-60
2023/08/19 11:57:53;;;;;;;11.70;6.30;;;;;;;36.26;34.92;100172.61;108977;1257;58711;-62
2023/08/19 12:00:39;;;;;;;10.40;6.60;;;;;;;36.28;34.37;100171.94;109069;1257;59987;-64
2023/08/19 12:03:26;;;;;;;11.50;6.10;;;;;;;35.94;34.55;100172.59;109070;1257;72605;-60
2023/08/19 12:06:13;;;;;;;10.70;6.40;;;;;;;35.49;36.00;100175.46;109074;1257;67733;-65
2023/08/19 12:09:00;;;;;;;12.00;6.40;;;;;;;34.96;37.18;100172.95;108992;1257;71465;-61
2023/08/19 12:11:48;;;;;;;10.20;6.60;;;;;;;34.30;37.61;100175.21;109031;1257;57632;-62
2023/08/19 12:14:34;;;;;;;9.10;5.90;;;;;;;33.81;38.32;100171.91;109075;1257;61114;-61
2023/08/19 12:17:21;;;;;;;11.80;7.50;;;;;;;33.53;40.21;100170.25;109037;1257;72780;-60
2023/08/19 12:20:08;;;;;;;11.30;8.00;;;;;;;33.28;42.20;100167.00;109101;1257;67686;-65
2023/08/19 12:22:54;;;;;;;11.10;7.60;;;;;;;33.15;43.54;100168.78;109084;1257;72633;-65
2023/08/19 12:25:58;;;;;;;12.50;7.70;;;;;;;33.09;43.61;100165.55;109091;1257;58721;-63
2023/08/19 12:28:44;;;;;;;12.00;6.90;;;;;;;32.50;41.08;100165.40;109050;1257;60302;-67
2023/08/19 12:31:30;;;;;;;11.70;7.10;;;;;;;32.26;42.21;100165.69;109110;1257;73822;-64
2023/08/19 12:34:16;;;;;;;16.00;8.20;;;;;;;32.03;44.16;100159.06;109081;1257;66475;-65